Airfield :
LOGIN :

Register | Disclaimer

   EN    FR    IT 

 










Legend :    VFR   Marginal VFR   IFR   Intensive IFR   Very Intensive IFR
Visi :
Ceiling :
>= 8 km
>= 3000ft
5 to 8 km
1000 to 3000 ft
1500m to 5 km
500 to 1000 ft
800 to 1500m
200 to 500 ft
< 800m
< 200 ft
Symbols :   Thunderstorms  Fog  Heavy snow  Heavy precipitations  Wind > 20 kt
SIGMETs :     Misc.  Thunderstorms  Icing  Turbulence  Mountain Waves  Volcanic Ashes







- Airport Elevation : 7 ft
- IATA code : VCE


LIPZ - Marco Polo Int. Venezia

CURRENT METAR :
  • 171750Z 01005KT 8000 BKN058 07/03 Q1011 NOSIG

EXPIRED METARs :
  • 171720Z 36007KT 8000 BKN057 07/03 Q1012 NOSIG
  • 171650Z 01006KT 8000 SCT030 BKN058 07/03 Q1012 NOSIG
  • 171620Z 36005KT 8000 BKN030 07/04 Q1012 NOSIG
  • 171550Z 36004KT 9000 SCT030 08/04 Q1012 NOSIG

TAF TAF LIPZ
Valid from the 17 at 18:00 until the 19 at 00:00 UTC


171700Z 1718/1824 VRB06KT 9999 SCT060
TEMPO 1718/1809 4000 RA
BECMG 1806/1808 04015KT
BECMG 1810/1812 08018G28KT
BECMG 1818/1820 04010KT
No reported NOTAMs for that airfield.



MET'MAP, your aeronautical weather chart ! - Copyright ORBIFLY December 2007 - Disclaimer

ORBIFLY MET'MAP TEAM :

Programming & Development : Alexandra Zaïnal
Concept & Development : Baudouin d'Aumeries
Co-Development & Prog : Marc-Olivier Méhu
Technical & hardware support : Manuel Goepfert

Contact : metmap@orbifly.com




SOURCES & CREDITS :

   NOAA